createdAt,value
2017-10-02T00:00:11.276Z,0
2017-10-02T00:01:21.228Z,0
2017-10-02T00:02:31.509Z,0
2017-10-02T00:03:41.463Z,0
2017-10-02T00:04:51.743Z,0
2017-10-02T00:06:02.012Z,0
2017-10-02T00:07:11.961Z,0
2017-10-02T00:08:22.242Z,0
2017-10-02T00:09:32.517Z,0
2017-10-02T00:10:42.791Z,0
2017-10-02T00:11:53.065Z,0
2017-10-02T00:13:03.335Z,0
2017-10-02T00:14:13.283Z,0
2017-10-02T00:15:23.558Z,0
2017-10-02T00:16:33.508Z,0
2017-10-02T00:17:43.780Z,0
2017-10-02T00:18:53.732Z,0
2017-10-02T00:20:04.014Z,0
2017-10-02T00:21:13.964Z,0
2017-10-02T00:22:24.237Z,0
2017-10-02T00:23:34.186Z,0
2017-10-02T00:24:44.453Z,0
2017-10-02T00:25:54.401Z,0
2017-10-02T00:27:04.673Z,0
2017-10-02T00:28:14.942Z,0
2017-10-02T00:29:25.216Z,0
2017-10-02T00:30:35.173Z,0
2017-10-02T00:31:45.121Z,0
2017-10-02T00:32:54.749Z,0
2017-10-02T00:34:05.022Z,0
2017-10-02T00:35:15.291Z,0
2017-10-02T00:36:24.940Z,0
2017-10-02T00:37:35.205Z,0
2017-10-02T00:38:45.153Z,0
2017-10-02T00:39:55.103Z,0
2017-10-02T00:41:05.053Z,0
2017-10-02T00:42:15.003Z,0
2017-10-02T00:43:24.962Z,0
2017-10-02T00:44:34.915Z,0
2017-10-02T00:45:44.870Z,0
2017-10-02T00:46:54.820Z,0
2017-10-02T00:48:05.086Z,0
2017-10-02T00:49:15.355Z,0
2017-10-02T00:50:25.631Z,0
2017-10-02T00:51:35.899Z,0
2017-10-02T00:52:46.169Z,0
2017-10-02T00:53:56.448Z,0
2017-10-02T00:55:06.402Z,0
2017-10-02T00:56:16.676Z,0
2017-10-02T00:57:26.947Z,0
2017-10-02T00:58:37.217Z,0
2017-10-02T00:59:47.189Z,0
2017-10-02T01:00:57.461Z,0
2017-10-02T01:02:07.410Z,0
2017-10-02T01:03:17.681Z,0
2017-10-02T01:04:27.955Z,0
2017-10-02T01:05:38.228Z,0
2017-10-02T01:06:48.175Z,0
2017-10-02T01:07:57.805Z,0
2017-10-02T01:09:07.752Z,0
2017-10-02T01:10:18.029Z,0
2017-10-02T01:11:28.318Z,0
2017-10-02T01:12:38.588Z,0
2017-10-02T01:13:48.539Z,0
2017-10-02T01:14:58.811Z,0
2017-10-02T01:16:08.759Z,0
2017-10-02T01:17:18.714Z,0
2017-10-02T01:18:28.665Z,0
2017-10-02T01:19:38.947Z,0
2017-10-02T01:20:49.215Z,0
2017-10-02T01:21:59.497Z,0
2017-10-02T01:23:09.778Z,0
2017-10-02T01:24:19.727Z,0
2017-10-02T01:25:29.997Z,0
2017-10-02T01:26:39.949Z,0
2017-10-02T01:27:49.923Z,0
2017-10-02T01:29:00.193Z,0
2017-10-02T01:30:10.148Z,0
2017-10-02T01:31:20.432Z,0
2017-10-02T01:32:30.705Z,0
2017-10-02T01:33:40.669Z,0
2017-10-02T01:34:50.938Z,0
2017-10-02T01:36:00.565Z,0
2017-10-02T01:37:10.833Z,0
2017-10-02T01:38:21.104Z,0
2017-10-02T01:39:31.377Z,0
2017-10-02T01:40:41.329Z,0
2017-10-02T01:41:50.955Z,0
2017-10-02T01:43:01.244Z,0
2017-10-02T01:44:11.513Z,0
2017-10-02T01:45:21.139Z,0
2017-10-02T01:46:31.089Z,0
2017-10-02T01:47:41.359Z,0
2017-10-02T01:48:51.309Z,0
2017-10-02T01:50:01.253Z,0
2017-10-02T01:51:11.528Z,0
2017-10-02T01:52:21.807Z,0
2017-10-02T01:53:32.079Z,0
2017-10-02T01:54:42.345Z,0
2017-10-02T01:55:52.613Z,0
2017-10-02T01:57:02.563Z,0
2017-10-02T01:58:12.220Z,0
2017-10-02T01:59:22.509Z,0
2017-10-02T02:00:32.457Z,0
2017-10-02T02:01:42.412Z,0
2017-10-02T02:02:52.390Z,0
2017-10-02T02:04:02.344Z,0
2017-10-02T02:05:12.613Z,0
2017-10-02T02:06:22.893Z,0
2017-10-02T02:07:33.167Z,0
2017-10-02T02:08:43.120Z,0
2017-10-02T02:09:53.075Z,0
2017-10-02T02:11:03.345Z,0
2017-10-02T02:12:12.973Z,0
2017-10-02T02:13:23.248Z,0
2017-10-02T02:14:33.516Z,0
2017-10-02T02:15:43.785Z,0
2017-10-02T02:16:53.731Z,0
2017-10-02T02:18:04.007Z,0
2017-10-02T02:19:13.962Z,0
2017-10-02T02:20:24.234Z,0
2017-10-02T02:21:34.809Z,0
2017-10-02T02:22:45.107Z,0
2017-10-02T02:23:55.389Z,0
2017-10-02T02:25:05.662Z,0
2017-10-02T02:26:15.945Z,0
2017-10-02T02:27:26.218Z,0
2017-10-02T02:28:36.183Z,0
2017-10-02T02:29:46.138Z,0
2017-10-02T02:30:56.097Z,0
2017-10-02T02:32:06.368Z,0
2017-10-02T02:33:16.324Z,0
2017-10-02T02:34:26.270Z,0
2017-10-02T02:35:36.220Z,0
2017-10-02T02:36:46.178Z,0
2017-10-02T02:37:56.130Z,0
2017-10-02T02:39:05.756Z,0
2017-10-02T02:40:15.701Z,0
2017-10-02T02:41:25.974Z,0
2017-10-02T02:42:36.244Z,0
2017-10-02T02:43:46.201Z,0
2017-10-02T02:44:56.489Z,0
2017-10-02T02:46:05.798Z,0
2017-10-02T02:47:16.070Z,0
2017-10-02T02:48:26.018Z,0
2017-10-02T02:49:35.976Z,0
2017-10-02T02:50:45.928Z,0
2017-10-02T02:51:56.209Z,0
2017-10-02T02:53:06.489Z,0
2017-10-02T02:54:16.442Z,0
2017-10-02T02:55:26.394Z,0
2017-10-02T02:56:36.350Z,0
2017-10-02T02:57:46.297Z,0
2017-10-02T02:58:56.565Z,0
2017-10-02T03:00:06.516Z,0
2017-10-02T03:01:16.816Z,0
2017-10-02T03:02:27.089Z,0
2017-10-02T03:03:37.364Z,0
2017-10-02T03:04:47.317Z,0
2017-10-02T03:05:57.265Z,0
2017-10-02T03:07:07.221Z,0
2017-10-02T03:08:17.172Z,0
2017-10-02T03:09:27.444Z,0
2017-10-02T03:10:37.071Z,0
2017-10-02T03:11:47.021Z,0
2017-10-02T03:12:57.290Z,0
2017-10-02T03:14:07.565Z,0
2017-10-02T03:15:17.835Z,0
2017-10-02T03:16:27.792Z,0
2017-10-02T03:17:37.743Z,0
2017-10-02T03:18:47.691Z,0
2017-10-02T03:19:57.957Z,0
2017-10-02T03:21:08.233Z,0
2017-10-02T03:22:18.190Z,0
2017-10-02T03:23:28.136Z,0
2017-10-02T03:24:38.116Z,0
2017-10-02T03:25:48.398Z,0
2017-10-02T03:26:58.673Z,0
2017-10-02T03:28:08.944Z,0
2017-10-02T03:29:19.230Z,0
2017-10-02T03:30:29.177Z,0
2017-10-02T03:31:39.135Z,0
2017-10-02T03:32:48.770Z,0
2017-10-02T03:33:59.041Z,0
2017-10-02T03:35:08.987Z,0
2017-10-02T03:36:19.254Z,0
2017-10-02T03:37:29.520Z,0
2017-10-02T03:38:39.787Z,0
2017-10-02T03:39:49.747Z,0
2017-10-02T03:41:00.012Z,0
2017-10-02T03:42:10.282Z,0
2017-10-02T03:43:20.240Z,0
2017-10-02T03:44:30.512Z,0
2017-10-02T03:45:40.474Z,0
2017-10-02T03:46:50.424Z,0
2017-10-02T03:48:00.377Z,0
2017-10-02T03:49:10.647Z,0
2017-10-02T03:50:20.598Z,0
2017-10-02T03:51:30.867Z,0
2017-10-02T03:52:40.815Z,0
2017-10-02T03:53:50.766Z,0
2017-10-02T03:55:00.713Z,0
2017-10-02T03:56:10.017Z,0
2017-10-02T03:57:20.283Z,0
2017-10-02T03:58:30.234Z,0
2017-10-02T03:59:40.194Z,0
2017-10-02T04:00:50.460Z,0
2017-10-02T04:01:59.766Z,0
2017-10-02T04:03:10.040Z,0
2017-10-02T04:04:19.989Z,0
2017-10-02T04:05:29.947Z,0
2017-10-02T04:06:40.215Z,0
2017-10-02T04:07:50.160Z,0
2017-10-02T04:09:00.430Z,0
2017-10-02T04:10:10.377Z,0
2017-10-02T04:11:20.338Z,0
2017-10-02T04:12:30.294Z,0
2017-10-02T04:13:40.564Z,0
2017-10-02T04:14:50.841Z,0
2017-10-02T04:16:00.794Z,0
2017-10-02T04:17:10.739Z,0
2017-10-02T04:18:20.684Z,0
2017-10-02T04:19:30.946Z,0
2017-10-02T04:20:41.214Z,0
2017-10-02T04:21:51.498Z,0
2017-10-02T04:23:01.440Z,0
2017-10-02T04:24:11.706Z,0
2017-10-02T04:25:21.663Z,0
2017-10-02T04:26:31.938Z,0
2017-10-02T04:27:42.214Z,0
2017-10-02T04:28:51.520Z,0
2017-10-02T04:30:01.792Z,0
2017-10-02T04:31:12.071Z,0
2017-10-02T04:32:22.064Z,0
2017-10-02T04:33:32.339Z,0
2017-10-02T04:34:41.966Z,0
2017-10-02T04:35:51.915Z,0
2017-10-02T04:37:01.862Z,0
2017-10-02T04:38:11.491Z,0
2017-10-02T04:39:21.778Z,0
2017-10-02T04:40:31.733Z,0
2017-10-02T04:41:42.008Z,0
2017-10-02T04:42:51.657Z,0
2017-10-02T04:44:01.612Z,0
2017-10-02T04:45:11.566Z,0
2017-10-02T04:46:21.837Z,0
2017-10-02T04:47:32.042Z,0
2017-10-02T04:48:42.320Z,0
2017-10-02T04:49:52.271Z,0
2017-10-02T04:51:01.903Z,0
2017-10-02T04:52:11.537Z,0
2017-10-02T04:53:21.818Z,0
2017-10-02T04:54:31.766Z,0
2017-10-02T04:55:42.039Z,0
2017-10-02T04:56:51.993Z,0
2017-10-02T04:58:02.262Z,0
2017-10-02T04:59:12.206Z,0
2017-10-02T05:00:22.154Z,0
2017-10-02T05:01:32.426Z,0
2017-10-02T05:02:42.703Z,0
2017-10-02T05:03:52.657Z,0
2017-10-02T05:05:02.937Z,0
2017-10-02T05:06:12.239Z,0
2017-10-02T05:07:22.510Z,0
2017-10-02T05:08:32.786Z,0
2017-10-02T05:09:42.738Z,0
2017-10-02T05:10:52.380Z,4
2017-10-02T05:12:02.327Z,4
2017-10-02T05:13:12.615Z,0
2017-10-02T05:14:22.571Z,4
2017-10-02T05:15:32.527Z,4
2017-10-02T05:16:42.801Z,4
2017-10-02T05:17:53.091Z,8
2017-10-02T05:19:03.041Z,4
2017-10-02T05:20:12.669Z,4
2017-10-02T05:21:22.939Z,4
2017-10-02T05:22:32.891Z,4
2017-10-02T05:23:42.844Z,8
2017-10-02T05:24:52.480Z,8
2017-10-02T05:26:02.443Z,12
2017-10-02T05:27:12.734Z,8
2017-10-02T05:28:22.694Z,12
2017-10-02T05:29:32.969Z,16
2017-10-02T05:30:42.593Z,16
2017-10-02T05:31:52.222Z,12
2017-10-02T05:33:02.492Z,20
2017-10-02T05:34:14.763Z,20
2017-10-02T05:35:25.041Z,20
2017-10-02T05:36:35.313Z,16
2017-10-02T05:37:45.273Z,16
2017-10-02T05:38:55.223Z,12
2017-10-02T05:40:05.496Z,16
2017-10-02T05:41:15.449Z,16
2017-10-02T05:42:25.414Z,16
2017-10-02T05:43:35.701Z,16
2017-10-02T05:44:45.653Z,20
2017-10-02T05:45:55.608Z,24
2017-10-02T05:47:05.888Z,28
2017-10-02T05:48:16.159Z,36
2017-10-02T05:49:25.801Z,44
2017-10-02T05:50:35.765Z,36
2017-10-02T05:51:46.046Z,36
2017-10-02T05:52:55.673Z,36
2017-10-02T05:54:05.946Z,40
2017-10-02T05:55:16.214Z,44
2017-10-02T05:56:26.490Z,36
2017-10-02T05:57:36.456Z,40
2017-10-02T05:58:46.741Z,36
2017-10-02T05:59:56.371Z,36
2017-10-02T06:01:06.323Z,44
2017-10-02T06:02:15.950Z,40
2017-10-02T06:03:25.903Z,48
2017-10-02T06:04:35.850Z,52
2017-10-02T06:05:46.134Z,44
2017-10-02T06:06:56.407Z,52
2017-10-02T06:08:06.677Z,76
2017-10-02T06:09:16.632Z,64
2017-10-02T06:10:26.265Z,64
2017-10-02T06:11:36.221Z,64
2017-10-02T06:12:46.488Z,72
2017-10-02T06:13:56.447Z,72
2017-10-02T06:15:06.719Z,76
2017-10-02T06:16:17.019Z,84
2017-10-02T06:17:26.676Z,84
2017-10-02T06:18:36.949Z,92
2017-10-02T06:19:47.225Z,92
2017-10-02T06:20:57.173Z,108
2017-10-02T06:22:07.124Z,108
2017-10-02T06:23:17.081Z,108
2017-10-02T06:24:27.353Z,96
2017-10-02T06:25:36.980Z,104
2017-10-02T06:26:46.612Z,112
2017-10-02T06:27:56.883Z,116
2017-10-02T06:29:07.149Z,112
2017-10-02T06:30:17.442Z,164
2017-10-02T06:31:27.390Z,132
2017-10-02T06:32:37.342Z,184
2017-10-02T06:33:47.288Z,136
2017-10-02T06:34:56.920Z,128
2017-10-02T06:36:06.230Z,140
2017-10-02T06:37:16.180Z,116
2017-10-02T06:38:26.463Z,120
2017-10-02T06:39:36.743Z,124
2017-10-02T06:40:46.702Z,144
2017-10-02T06:41:56.655Z,152
2017-10-02T06:43:06.608Z,164
2017-10-02T06:44:16.882Z,196
2017-10-02T06:45:27.156Z,204
2017-10-02T06:46:36.786Z,208
2017-10-02T06:47:47.070Z,220
2017-10-02T06:48:57.026Z,272
2017-10-02T06:50:07.293Z,360
2017-10-02T06:51:16.607Z,316
2017-10-02T06:52:26.889Z,368
2017-10-02T06:53:36.836Z,408
2017-10-02T06:54:46.805Z,368
2017-10-02T06:55:56.771Z,392
2017-10-02T06:57:06.718Z,380
2017-10-02T06:58:17.003Z,376
2017-10-02T06:59:26.309Z,316
2017-10-02T07:00:36.257Z,320
2017-10-02T07:01:46.215Z,292
2017-10-02T07:02:55.841Z,292
2017-10-02T07:04:06.116Z,276
2017-10-02T07:05:16.074Z,304
2017-10-02T07:06:26.026Z,256
2017-10-02T07:07:36.324Z,232
2017-10-02T07:08:46.590Z,296
2017-10-02T07:09:56.549Z,276
2017-10-02T07:11:06.840Z,280
2017-10-02T07:12:16.794Z,268
2017-10-02T07:13:26.756Z,236
2017-10-02T07:14:37.026Z,276
2017-10-02T07:15:46.656Z,244
2017-10-02T07:16:55.972Z,284
2017-10-02T07:18:06.236Z,244
2017-10-02T07:19:15.876Z,244
2017-10-02T07:20:26.155Z,260
2017-10-02T07:21:36.477Z,224
2017-10-02T07:22:46.426Z,212
2017-10-02T07:23:56.054Z,196
2017-10-02T07:25:06.005Z,236
2017-10-02T07:26:16.289Z,228
2017-10-02T07:27:26.557Z,232
2017-10-02T07:28:36.525Z,232
2017-10-02T07:29:46.489Z,300
2017-10-02T07:30:56.116Z,308
2017-10-02T07:32:06.063Z,348
2017-10-02T07:33:16.336Z,372
2017-10-02T07:34:26.614Z,312
2017-10-02T07:35:36.570Z,300
2017-10-02T07:36:46.524Z,308
2017-10-02T07:37:56.149Z,376
2017-10-02T07:39:06.419Z,432
2017-10-02T07:40:16.370Z,436
2017-10-02T07:41:25.998Z,396
2017-10-02T07:42:36.273Z,416
2017-10-02T07:43:46.549Z,428
2017-10-02T07:44:56.827Z,344
2017-10-02T07:46:07.098Z,348
2017-10-02T07:47:17.048Z,344
2017-10-02T07:48:27.322Z,356
2017-10-02T07:49:36.947Z,372
2017-10-02T07:50:47.213Z,320
2017-10-02T07:51:57.479Z,328
2017-10-02T07:53:07.425Z,356
2017-10-02T07:54:19.946Z,420
2017-10-02T07:55:30.216Z,440
2017-10-02T07:56:40.487Z,468
2017-10-02T07:57:50.432Z,460
2017-10-02T07:59:00.377Z,584
2017-10-02T08:00:10.329Z,552
2017-10-02T08:01:20.277Z,516
2017-10-02T08:02:30.234Z,528
2017-10-02T08:03:40.507Z,476
2017-10-02T08:04:50.452Z,468
2017-10-02T08:06:00.728Z,464
2017-10-02T08:07:10.674Z,448
2017-10-02T08:08:20.636Z,460
2017-10-02T08:09:30.581Z,488
2017-10-02T08:10:40.870Z,560
2017-10-02T08:11:50.817Z,676
2017-10-02T08:13:00.772Z,652
2017-10-02T08:14:10.721Z,752
2017-10-02T08:15:20.996Z,944
2017-10-02T08:16:30.949Z,1200
2017-10-02T08:17:40.902Z,1044
2017-10-02T08:18:51.173Z,964
2017-10-02T08:20:00.800Z,872
2017-10-02T08:21:10.106Z,964
2017-10-02T08:22:20.048Z,1144
2017-10-02T08:23:30.316Z,1232
2017-10-02T08:24:40.582Z,1124
2017-10-02T08:25:50.862Z,1036
2017-10-02T08:27:00.817Z,1140
2017-10-02T08:28:10.769Z,940
2017-10-02T08:29:20.714Z,1004
2017-10-02T08:30:30.663Z,932
2017-10-02T08:31:40.613Z,912
2017-10-02T08:32:50.567Z,1064
2017-10-02T08:34:00.836Z,1088
2017-10-02T08:35:11.111Z,1084
2017-10-02T08:36:21.059Z,1156
2017-10-02T08:37:31.020Z,1300
2017-10-02T08:38:40.968Z,1440
2017-10-02T08:39:51.250Z,1548
2017-10-02T08:41:00.879Z,1680
2017-10-02T08:42:10.507Z,1856
2017-10-02T08:43:20.789Z,1948
2017-10-02T08:44:30.743Z,1864
2017-10-02T08:45:41.009Z,1908
2017-10-02T08:46:50.316Z,2060
2017-10-02T08:48:00.271Z,2144
2017-10-02T08:49:10.220Z,2012
2017-10-02T08:50:20.488Z,1900
2017-10-02T08:51:30.755Z,1880
2017-10-02T08:52:40.060Z,1868
2017-10-02T08:53:50.007Z,1976
2017-10-02T08:55:00.287Z,2148
2017-10-02T08:56:10.239Z,2208
2017-10-02T08:57:20.186Z,2136
2017-10-02T08:58:29.811Z,2208
2017-10-02T08:59:39.761Z,2236
2017-10-02T09:00:49.714Z,2184
2017-10-02T09:01:59.984Z,2192
2017-10-02T09:03:09.294Z,2308
2017-10-02T09:04:19.571Z,2308
2017-10-02T09:05:29.835Z,2152
2017-10-02T09:06:40.101Z,1984
2017-10-02T09:07:50.370Z,1992
2017-10-02T09:08:59.996Z,2072
2017-10-02T09:10:10.276Z,2004
2017-10-02T09:11:19.902Z,1940
2017-10-02T09:12:29.539Z,2032
2017-10-02T09:13:39.494Z,2164
2017-10-02T09:14:49.121Z,2272
2017-10-02T09:15:59.394Z,2400
2017-10-02T09:17:09.347Z,2360
2017-10-02T09:18:18.974Z,2296
2017-10-02T09:19:28.929Z,2384
2017-10-02T09:20:38.910Z,2548
2017-10-02T09:21:49.204Z,2680
2017-10-02T09:22:59.469Z,2748
2017-10-02T09:24:09.418Z,2728
2017-10-02T09:25:19.697Z,2836
2017-10-02T09:26:29.980Z,3012
2017-10-02T09:27:40.313Z,3176
2017-10-02T09:28:50.597Z,3504
2017-10-02T09:30:00.543Z,3768
2017-10-02T09:31:10.812Z,3732
2017-10-02T09:32:20.436Z,3772
2017-10-02T09:33:30.062Z,3788
2017-10-02T09:34:40.017Z,3444
2017-10-02T09:35:49.651Z,2660
2017-10-02T09:36:59.917Z,3124
2017-10-02T09:38:09.547Z,3760
2017-10-02T09:39:19.503Z,3600
2017-10-02T09:40:29.452Z,3504
2017-10-02T09:41:39.722Z,3752
2017-10-02T09:42:49.994Z,3596
2017-10-02T09:43:59.704Z,3300
2017-10-02T09:45:09.657Z,3164
2017-10-02T09:46:19.930Z,3536
2017-10-02T09:47:29.886Z,3488
2017-10-02T09:48:39.832Z,3736
2017-10-02T09:49:49.461Z,4432
2017-10-02T09:50:59.730Z,4200
2017-10-02T09:52:09.684Z,4404
2017-10-02T09:53:19.956Z,3988
2017-10-02T09:54:30.228Z,3736
2017-10-02T09:55:40.173Z,2796
2017-10-02T09:56:49.803Z,2968
2017-10-02T09:58:00.074Z,3132
2017-10-02T09:59:10.028Z,3060
2017-10-02T10:00:20.331Z,3756
2017-10-02T10:01:30.285Z,4240
2017-10-02T10:02:40.556Z,4264
2017-10-02T10:03:50.510Z,2620
2017-10-02T10:05:00.473Z,2180
2017-10-02T10:06:10.103Z,1976
2017-10-02T10:07:20.378Z,2072
2017-10-02T10:08:30.321Z,2472
2017-10-02T10:09:39.951Z,2552
2017-10-02T10:10:50.227Z,2428
2017-10-02T10:12:00.491Z,2512
2017-10-02T10:13:10.766Z,2436
2017-10-02T10:14:20.722Z,2244
2017-10-02T10:15:30.669Z,2524
2017-10-02T10:16:40.624Z,2800
2017-10-02T10:17:50.259Z,2756
2017-10-02T10:19:00.538Z,2804
2017-10-02T10:20:10.806Z,2912
2017-10-02T10:21:20.754Z,3100
2017-10-02T10:22:30.702Z,2884
2017-10-02T10:23:40.334Z,2508
2017-10-02T10:24:50.609Z,1892
2017-10-02T10:26:00.557Z,1572
2017-10-02T10:27:09.864Z,1680
2017-10-02T10:28:19.495Z,1980
2017-10-02T10:29:29.130Z,2256
2017-10-02T10:30:39.408Z,2488
2017-10-02T10:31:49.684Z,2312
2017-10-02T10:32:59.956Z,2356
2017-10-02T10:34:10.231Z,2468
2017-10-02T10:35:20.507Z,2228
2017-10-02T10:36:30.792Z,2456
2017-10-02T10:37:41.062Z,2264
2017-10-02T10:38:51.338Z,2564
2017-10-02T10:40:00.971Z,2476
2017-10-02T10:41:10.607Z,2668
2017-10-02T10:42:20.894Z,2872
2017-10-02T10:43:30.861Z,3284
2017-10-02T10:44:41.132Z,3752
2017-10-02T10:45:51.079Z,4120
2017-10-02T10:47:01.360Z,4616
2017-10-02T10:48:11.313Z,5124
2017-10-02T10:49:21.262Z,5180
2017-10-02T10:50:31.213Z,4216
2017-10-02T10:51:41.488Z,4088
2017-10-02T10:52:51.119Z,3556
2017-10-02T10:54:01.396Z,3172
2017-10-02T10:55:11.349Z,3588
2017-10-02T10:56:21.622Z,3816
2017-10-02T10:57:31.581Z,5064
2017-10-02T10:58:41.856Z,6816
2017-10-02T10:59:51.809Z,8320
2017-10-02T11:01:01.760Z,10664
2017-10-02T11:02:11.068Z,10044
2017-10-02T11:03:21.019Z,9748
2017-10-02T11:04:30.651Z,8576
2017-10-02T11:05:40.937Z,5948
2017-10-02T11:06:50.892Z,5292
2017-10-02T11:08:00.203Z,4924
2017-10-02T11:09:10.156Z,4672
2017-10-02T11:10:20.433Z,4352
2017-10-02T11:11:30.703Z,4392
2017-10-02T11:12:40.335Z,3788
2017-10-02T11:13:50.299Z,3784
2017-10-02T11:15:00.252Z,4412
2017-10-02T11:16:09.888Z,5308
2017-10-02T11:17:19.519Z,6932
2017-10-02T11:18:29.148Z,8664
2017-10-02T11:19:39.130Z,9424
2017-10-02T11:20:49.405Z,15616
2017-10-02T11:21:59.703Z,6568
2017-10-02T11:23:09.652Z,7196
2017-10-02T11:24:19.924Z,6608
2017-10-02T11:25:30.200Z,6592
2017-10-02T11:26:40.474Z,5472
2017-10-02T11:27:50.425Z,4892
2017-10-02T11:29:00.381Z,4916
2017-10-02T11:30:10.658Z,4888
2017-10-02T11:31:20.606Z,5024
2017-10-02T11:32:30.557Z,4264
2017-10-02T11:33:40.183Z,5016
2017-10-02T11:34:50.140Z,6156
2017-10-02T11:36:00.427Z,6128
2017-10-02T11:37:09.735Z,4644
2017-10-02T11:38:19.683Z,3884
2017-10-02T11:39:29.641Z,3752
2017-10-02T11:40:39.590Z,4184
2017-10-02T11:41:49.550Z,5008
2017-10-02T11:42:59.834Z,5060
2017-10-02T11:44:09.793Z,4548
2017-10-02T11:45:19.741Z,4344
2017-10-02T11:46:29.694Z,4544
2017-10-02T11:47:39.970Z,5064
2017-10-02T11:48:49.919Z,4768
2017-10-02T11:50:00.201Z,5224
2017-10-02T11:51:10.154Z,5096
2017-10-02T11:52:20.102Z,4492
2017-10-02T11:53:30.369Z,3908
2017-10-02T11:54:40.642Z,4120
2017-10-02T11:55:50.595Z,4736
2017-10-02T11:57:00.225Z,5952
2017-10-02T11:58:10.505Z,7720
2017-10-02T11:59:20.773Z,8568
2017-10-02T12:00:30.723Z,6820
2017-10-02T12:01:41.004Z,5960
2017-10-02T12:02:51.287Z,5976
2017-10-02T12:04:01.557Z,6252
2017-10-02T12:05:11.510Z,6204
2017-10-02T12:06:21.460Z,6132
2017-10-02T12:07:31.089Z,5352
2017-10-02T12:08:41.043Z,5228
2017-10-02T12:09:50.991Z,5636
2017-10-02T12:11:01.265Z,6036
2017-10-02T12:12:11.218Z,6668
2017-10-02T12:13:21.497Z,6560
2017-10-02T12:14:31.775Z,6128
2017-10-02T12:15:42.057Z,6828
2017-10-02T12:16:52.013Z,6740
2017-10-02T12:18:02.289Z,7060
2017-10-02T12:19:12.564Z,7844
2017-10-02T12:20:22.519Z,8064
2017-10-02T12:21:32.794Z,6368
2017-10-02T12:22:43.071Z,5552
2017-10-02T12:23:53.354Z,5048
2017-10-02T12:25:03.632Z,5272
2017-10-02T12:26:13.915Z,5612
2017-10-02T12:27:24.188Z,5876
2017-10-02T12:28:34.238Z,6356
2017-10-02T12:29:44.511Z,7420
2017-10-02T12:30:54.147Z,7852
2017-10-02T12:32:04.097Z,8404
2017-10-02T12:33:14.371Z,8548
2017-10-02T12:34:24.644Z,9264
2017-10-02T12:35:34.594Z,8140
2017-10-02T12:36:44.864Z,10008
2017-10-02T12:37:54.814Z,9804
2017-10-02T12:39:05.108Z,10764
2017-10-02T12:40:15.379Z,29376
2017-10-02T12:41:25.330Z,29696
2017-10-02T12:42:35.288Z,26016
2017-10-02T12:43:45.239Z,23168
2017-10-02T12:44:55.520Z,20128
2017-10-02T12:46:05.794Z,14632
2017-10-02T12:47:15.749Z,12088
2017-10-02T12:48:25.705Z,10660
2017-10-02T12:49:35.981Z,11056
2017-10-02T12:50:45.936Z,11172
2017-10-02T12:51:55.928Z,10752
2017-10-02T12:53:06.207Z,15584
2017-10-02T12:54:16.157Z,15896
2017-10-02T12:55:25.792Z,15184
2017-10-02T12:56:36.076Z,10684
2017-10-02T12:57:46.352Z,8320
2017-10-02T12:58:56.627Z,7444
2017-10-02T13:00:06.603Z,9436
2017-10-02T13:01:16.882Z,11080
2017-10-02T13:02:26.837Z,13240
2017-10-02T13:03:36.476Z,13704
2017-10-02T13:04:46.749Z,14328
2017-10-02T13:05:56.704Z,13012
2017-10-02T13:07:06.662Z,11344
2017-10-02T13:08:16.633Z,10036
2017-10-02T13:09:26.070Z,9072
2017-10-02T13:10:35.730Z,8876
2017-10-02T13:11:45.682Z,9016
2017-10-02T13:12:55.312Z,9592
2017-10-02T13:14:05.596Z,11932
2017-10-02T13:15:15.233Z,11892
2017-10-02T13:16:24.865Z,11408
2017-10-02T13:17:35.141Z,10644
2017-10-02T13:18:44.778Z,10416
2017-10-02T13:19:54.733Z,11480
2017-10-02T13:21:04.711Z,14436
2017-10-02T13:22:14.343Z,17152
2017-10-02T13:23:23.978Z,14972
2017-10-02T13:24:34.258Z,18272
2017-10-02T13:25:44.532Z,14156
2017-10-02T13:26:54.168Z,19040
2017-10-02T13:28:04.113Z,23392
2017-10-02T13:29:14.385Z,16384
2017-10-02T13:30:24.661Z,15592
2017-10-02T13:31:34.954Z,17440
2017-10-02T13:32:44.581Z,16032
2017-10-02T13:33:54.870Z,12496
2017-10-02T13:35:04.832Z,15080
2017-10-02T13:36:15.105Z,14060
2017-10-02T13:37:25.376Z,11488
2017-10-02T13:38:35.329Z,15912
2017-10-02T13:39:45.285Z,10616
2017-10-02T13:40:55.599Z,9332
2017-10-02T13:42:05.570Z,14296
2017-10-02T13:43:14.881Z,20832
2017-10-02T13:44:24.859Z,14124
2017-10-02T13:45:34.514Z,25312
2017-10-02T13:46:44.470Z,7876
2017-10-02T13:47:54.130Z,6832
2017-10-02T13:49:04.404Z,5956
2017-10-02T13:50:14.036Z,14132
2017-10-02T13:51:24.312Z,16928
2017-10-02T13:52:34.266Z,6288
2017-10-02T13:53:44.548Z,6224
2017-10-02T13:54:53.860Z,6044
2017-10-02T13:56:03.506Z,5560
2017-10-02T13:57:12.818Z,5640
2017-10-02T13:58:23.093Z,7280
2017-10-02T13:59:33.085Z,6852
2017-10-02T14:00:43.360Z,7744
2017-10-02T14:01:53.634Z,8152
2017-10-02T14:03:03.597Z,8616
2017-10-02T14:04:13.872Z,9172
2017-10-02T14:05:23.503Z,9684
2017-10-02T14:06:33.780Z,10512
2017-10-02T14:07:44.051Z,10888
2017-10-02T14:08:53.676Z,10912
2017-10-02T14:10:03.626Z,10608
2017-10-02T14:11:13.904Z,14976
2017-10-02T14:12:23.217Z,10816
2017-10-02T14:13:33.489Z,9476
2017-10-02T14:14:43.449Z,8848
2017-10-02T14:15:53.733Z,9408
2017-10-02T14:17:04.016Z,8088
2017-10-02T14:18:13.645Z,7588
2017-10-02T14:19:23.607Z,7656
2017-10-02T14:20:33.878Z,7924
2017-10-02T14:21:43.828Z,8536
2017-10-02T14:22:54.105Z,9372
2017-10-02T14:24:04.377Z,10860
2017-10-02T14:25:14.660Z,9468
2017-10-02T14:26:24.641Z,8996
2017-10-02T14:27:34.600Z,8228
2017-10-02T14:28:44.233Z,7196
2017-10-02T14:29:54.213Z,5748
2017-10-02T14:31:04.487Z,5260
2017-10-02T14:32:14.453Z,5100
2017-10-02T14:33:24.723Z,5556
2017-10-02T14:34:34.356Z,6060
2017-10-02T14:35:43.987Z,5680
2017-10-02T14:36:53.618Z,7360
2017-10-02T14:38:03.888Z,8604
2017-10-02T14:39:13.841Z,10808
2017-10-02T14:40:24.117Z,14316
2017-10-02T14:41:34.391Z,14880
2017-10-02T14:42:44.343Z,18816
2017-10-02T14:43:53.974Z,17760
2017-10-02T14:45:04.259Z,16096
2017-10-02T14:46:14.208Z,19552
2017-10-02T14:47:24.483Z,12488
2017-10-02T14:48:34.113Z,8828
2017-10-02T14:49:44.383Z,10352
2017-10-02T14:50:54.337Z,18016
2017-10-02T14:52:04.299Z,21088
2017-10-02T14:53:14.573Z,18496
2017-10-02T14:54:24.540Z,18432
2017-10-02T14:55:34.498Z,22816
2017-10-02T14:56:44.456Z,26432
2017-10-02T14:57:54.734Z,30400
2017-10-02T14:59:05.026Z,30112
2017-10-02T15:00:14.655Z,31392
2017-10-02T15:01:24.926Z,20928
2017-10-02T15:02:34.562Z,29952
2017-10-02T15:03:44.518Z,29344
2017-10-02T15:04:54.155Z,27904
2017-10-02T15:06:04.435Z,10200
2017-10-02T15:07:14.385Z,10512
2017-10-02T15:08:24.340Z,4344
2017-10-02T15:09:34.304Z,4732
2017-10-02T15:10:44.262Z,4312
2017-10-02T15:11:54.538Z,6160
2017-10-02T15:13:04.821Z,6696
2017-10-02T15:14:14.773Z,7272
2017-10-02T15:15:24.728Z,7340
2017-10-02T15:16:35.007Z,6928
2017-10-02T15:17:45.282Z,4536
2017-10-02T15:18:55.238Z,4024
2017-10-02T15:20:05.521Z,3964
2017-10-02T15:21:15.474Z,3868
2017-10-02T15:22:25.127Z,3632
2017-10-02T15:23:35.407Z,3512
2017-10-02T15:24:45.689Z,4468
2017-10-02T15:25:55.965Z,7564
2017-10-02T15:27:05.921Z,2792
2017-10-02T15:28:16.192Z,2928
2017-10-02T15:29:25.822Z,2660
2017-10-02T15:30:35.459Z,2908
2017-10-02T15:31:45.733Z,4680
2017-10-02T15:32:55.690Z,3284
2017-10-02T15:34:05.972Z,5192
2017-10-02T15:35:16.248Z,4976
2017-10-02T15:36:26.204Z,4536
2017-10-02T15:37:36.479Z,4224
2017-10-02T15:38:46.432Z,3584
2017-10-02T15:39:56.388Z,3008
2017-10-02T15:41:06.346Z,2776
2017-10-02T15:42:15.973Z,3076
2017-10-02T15:43:25.938Z,2664
2017-10-02T15:44:35.890Z,2684
2017-10-02T15:45:45.521Z,2524
2017-10-02T15:46:55.480Z,2368
2017-10-02T15:48:05.432Z,2276
2017-10-02T15:49:15.385Z,2208
2017-10-02T15:50:25.338Z,2116
2017-10-02T15:51:35.288Z,2068
2017-10-02T15:52:45.562Z,2008
2017-10-02T15:53:55.511Z,1932
2017-10-02T15:55:05.469Z,1844
2017-10-02T15:56:15.420Z,1776
2017-10-02T15:57:25.376Z,1720
2017-10-02T15:58:35.005Z,1684
2017-10-02T15:59:44.954Z,1652
2017-10-02T16:00:54.900Z,1596
2017-10-02T16:02:04.861Z,1528
2017-10-02T16:03:14.837Z,1504
2017-10-02T16:04:24.795Z,1472
2017-10-02T16:05:34.759Z,1432
2017-10-02T16:06:45.040Z,1380
2017-10-02T16:07:54.988Z,1332
2017-10-02T16:09:04.616Z,1288